createdAt,value
2022-08-17T00:00:42.700Z,21.00
2022-08-17T00:03:14.433Z,20.93
2022-08-17T00:05:48.367Z,21.03
2022-08-17T00:08:19.848Z,21.21
2022-08-17T00:10:49.417Z,21.32
2022-08-17T00:13:21.275Z,21.27
2022-08-17T00:15:50.021Z,21.12
2022-08-17T00:18:57.452Z,20.89
2022-08-17T00:21:10.939Z,20.63
2022-08-17T00:23:44.311Z,20.54
2022-08-17T00:26:44.228Z,20.65
2022-08-17T00:29:09.122Z,20.72
2022-08-17T00:31:38.074Z,20.81
2022-08-17T00:34:09.169Z,20.88
2022-08-17T00:36:39.209Z,20.95
2022-08-17T00:39:07.643Z,20.97
2022-08-17T00:41:36.263Z,21.02
2022-08-17T00:44:12.098Z,21.08
2022-08-17T00:46:43.126Z,21.10
2022-08-17T00:49:13.674Z,21.17
2022-08-17T00:51:48.850Z,21.26
2022-08-17T00:54:21.981Z,21.33
2022-08-17T00:56:54.418Z,21.36
2022-08-17T00:59:25.975Z,21.41
2022-08-17T01:01:55.196Z,21.42
2022-08-17T01:04:24.070Z,21.49
2022-08-17T01:06:54.707Z,21.51
2022-08-17T01:09:23.350Z,21.51
2022-08-17T01:11:53.027Z,21.54
2022-08-17T01:14:22.338Z,21.53
2022-08-17T01:16:54.089Z,21.53
2022-08-17T01:19:25.349Z,21.54
2022-08-17T01:22:01.964Z,21.55
2022-08-17T01:24:33.749Z,21.53
2022-08-17T01:27:02.589Z,21.53
2022-08-17T01:29:40.517Z,21.51
2022-08-17T01:32:09.587Z,21.49
2022-08-17T01:34:43.395Z,21.50
2022-08-17T01:37:14.002Z,21.50
2022-08-17T01:39:48.654Z,21.52
2022-08-17T01:42:23.745Z,21.57
2022-08-17T01:44:56.289Z,21.56
2022-08-17T01:47:24.762Z,21.56
2022-08-17T01:49:53.271Z,21.49
2022-08-17T01:52:23.828Z,21.45
2022-08-17T01:54:54.868Z,21.40
2022-08-17T01:57:23.330Z,21.40
2022-08-17T01:59:51.868Z,21.39
2022-08-17T02:02:30.270Z,21.43
2022-08-17T02:05:00.032Z,21.46
2022-08-17T02:07:29.156Z,21.49
2022-08-17T02:09:59.514Z,21.52
2022-08-17T02:12:39.158Z,21.50
2022-08-17T02:15:12.332Z,21.51
2022-08-17T02:17:41.582Z,21.48
2022-08-17T02:20:12.046Z,21.48
2022-08-17T02:22:44.445Z,21.50
2022-08-17T02:25:19.617Z,21.49
2022-08-17T02:27:48.061Z,21.47
2022-08-17T02:30:59.178Z,21.45
2022-08-17T02:33:06.380Z,21.46
2022-08-17T02:35:38.564Z,21.49
2022-08-17T02:38:08.810Z,21.45
2022-08-17T02:40:40.516Z,21.40
2022-08-17T02:43:10.233Z,21.40
2022-08-17T02:45:38.702Z,21.40
2022-08-17T02:48:07.514Z,21.41
2022-08-17T02:50:36.176Z,21.41
2022-08-17T02:53:05.405Z,21.39
2022-08-17T02:55:37.251Z,21.35
2022-08-17T02:58:07.949Z,21.29
2022-08-17T03:00:41.027Z,21.29
2022-08-17T03:03:13.550Z,21.31
2022-08-17T03:05:42.303Z,21.33
2022-08-17T03:08:13.368Z,21.28
2022-08-17T03:10:42.141Z,21.24
2022-08-17T03:13:12.836Z,21.21
2022-08-17T03:15:45.163Z,21.18
2022-08-17T03:18:19.089Z,21.15
2022-08-17T03:20:53.813Z,21.13
2022-08-17T03:23:24.480Z,21.10
2022-08-17T03:25:55.300Z,21.02
2022-08-17T03:28:26.493Z,20.90
2022-08-17T03:30:55.585Z,20.92
2022-08-17T03:33:24.220Z,20.92
2022-08-17T03:35:53.049Z,20.86
2022-08-17T03:38:22.045Z,20.84
2022-08-17T03:40:59.021Z,20.85
2022-08-17T03:43:32.328Z,20.80
2022-08-17T03:46:29.009Z,20.80
2022-08-17T03:49:23.145Z,20.74
2022-08-17T03:52:09.135Z,20.67
2022-08-17T03:54:55.670Z,20.57
2022-08-17T03:57:24.641Z,20.22
2022-08-17T03:59:55.172Z,20.14
2022-08-17T04:02:26.878Z,20.15
2022-08-17T04:04:55.790Z,20.20
2022-08-17T04:07:27.454Z,20.25
2022-08-17T04:09:55.988Z,20.31
2022-08-17T04:12:25.454Z,20.38
2022-08-17T04:14:55.436Z,20.44
2022-08-17T04:17:26.638Z,20.49
2022-08-17T04:19:56.422Z,20.46
2022-08-17T04:22:30.042Z,20.44
2022-08-17T04:25:05.411Z,20.42
2022-08-17T04:27:33.861Z,20.42
2022-08-17T04:30:04.342Z,20.40
2022-08-17T04:33:04.291Z,20.33
2022-08-17T04:35:24.097Z,20.17
2022-08-17T04:37:53.299Z,20.01
2022-08-17T04:40:41.407Z,20.02
2022-08-17T04:43:11.891Z,20.09
2022-08-17T04:45:55.434Z,20.16
2022-08-17T04:48:27.968Z,20.25
2022-08-17T04:51:06.235Z,20.31
2022-08-17T04:53:34.749Z,20.34
2022-08-17T04:56:03.543Z,20.36
2022-08-17T04:58:32.249Z,20.35
2022-08-17T05:01:02.511Z,20.43
2022-08-17T05:03:31.427Z,20.53
2022-08-17T05:05:59.933Z,20.52
2022-08-17T05:08:28.433Z,20.58
2022-08-17T05:10:57.027Z,20.62
2022-08-17T05:13:29.275Z,20.67
2022-08-17T05:15:59.721Z,20.60
2022-08-17T05:18:31.119Z,20.54
2022-08-17T05:21:00.082Z,20.52
2022-08-17T05:23:32.723Z,20.60
2022-08-17T05:26:24.748Z,20.71
2022-08-17T05:28:59.667Z,20.75
2022-08-17T05:31:31.935Z,20.69
2022-08-17T05:34:01.801Z,20.65
2022-08-17T05:36:43.264Z,20.68
2022-08-17T05:39:16.725Z,20.70
2022-08-17T05:41:47.817Z,20.76
2022-08-17T05:44:17.576Z,20.85
2022-08-17T05:46:50.420Z,20.91
2022-08-17T05:49:27.167Z,20.92
2022-08-17T05:52:10.776Z,20.96
2022-08-17T05:54:55.886Z,20.94
2022-08-17T05:57:47.522Z,21.00
2022-08-17T06:00:30.893Z,21.05
2022-08-17T06:03:16.486Z,21.12
2022-08-17T06:05:55.661Z,21.17
2022-08-17T06:08:33.279Z,21.19
2022-08-17T06:11:10.314Z,21.27
2022-08-17T06:13:55.003Z,21.30
2022-08-17T06:16:34.449Z,21.32
2022-08-17T06:19:11.130Z,21.39
2022-08-17T06:21:46.310Z,21.46
2022-08-17T06:24:27.442Z,21.52
2022-08-17T06:26:58.470Z,21.60
2022-08-17T06:29:37.248Z,21.66
2022-08-17T06:32:09.023Z,21.70
2022-08-17T06:34:39.134Z,21.76
2022-08-17T06:37:22.908Z,21.79
2022-08-17T06:40:03.831Z,21.79
2022-08-17T06:43:00.851Z,21.87
2022-08-17T06:45:39.838Z,21.92
2022-08-17T06:48:17.078Z,21.98
2022-08-17T06:50:48.723Z,22.01
2022-08-17T06:53:24.514Z,22.08
2022-08-17T06:55:59.931Z,22.17
2022-08-17T06:58:31.968Z,22.24
2022-08-17T07:01:09.274Z,22.29
2022-08-17T07:03:47.666Z,22.33
2022-08-17T07:06:19.839Z,22.38
2022-08-17T07:08:59.047Z,22.40
2022-08-17T07:11:33.051Z,22.47
2022-08-17T07:14:16.655Z,22.53
2022-08-17T07:16:47.952Z,22.58
2022-08-17T07:19:18.098Z,22.61
2022-08-17T07:21:55.138Z,22.66
2022-08-17T07:24:43.341Z,22.74
2022-08-17T07:27:15.537Z,22.84
2022-08-17T07:29:50.450Z,22.94
2022-08-17T07:32:24.256Z,23.04
2022-08-17T07:35:10.637Z,23.11
2022-08-17T07:37:40.982Z,23.19
2022-08-17T07:40:33.546Z,23.29
2022-08-17T07:43:04.910Z,23.29
2022-08-17T07:45:52.481Z,23.30
2022-08-17T07:48:23.145Z,23.34
2022-08-17T07:50:53.335Z,23.43
2022-08-17T07:53:24.225Z,23.48
2022-08-17T07:55:54.841Z,23.50
2022-08-17T07:58:26.517Z,23.52
2022-08-17T08:01:07.861Z,23.61
2022-08-17T08:03:42.970Z,23.69
2022-08-17T08:06:22.119Z,23.81
2022-08-17T08:08:54.757Z,23.90
2022-08-17T08:11:40.145Z,23.92
2022-08-17T08:14:28.341Z,23.97
2022-08-17T08:17:00.224Z,24.01
2022-08-17T08:19:29.895Z,24.06
2022-08-17T08:22:03.557Z,24.15
2022-08-17T08:24:55.289Z,24.20
2022-08-17T08:27:34.826Z,24.24
2022-08-17T08:30:09.935Z,24.33
2022-08-17T08:32:54.337Z,24.47
2022-08-17T08:35:32.878Z,24.60
2022-08-17T08:38:12.015Z,24.70
2022-08-17T08:40:59.342Z,24.82
2022-08-17T08:43:38.322Z,24.93
2022-08-17T08:46:19.691Z,25.04
2022-08-17T08:49:11.855Z,25.14
2022-08-17T08:51:50.839Z,25.27
2022-08-17T08:54:34.905Z,25.40
2022-08-17T08:57:26.961Z,25.48
2022-08-17T09:00:09.798Z,25.60
2022-08-17T09:03:14.162Z,25.73
2022-08-17T09:06:03.947Z,25.93
2022-08-17T09:08:44.126Z,26.07
2022-08-17T09:11:18.570Z,26.16
2022-08-17T09:13:59.920Z,26.30
2022-08-17T09:16:37.353Z,26.49
2022-08-17T09:19:13.102Z,26.63
2022-08-17T09:21:48.772Z,26.80
2022-08-17T09:24:24.225Z,26.95
2022-08-17T09:26:59.391Z,27.09
2022-08-17T09:29:35.254Z,27.19
2022-08-17T09:32:17.507Z,27.25
2022-08-17T09:34:51.106Z,27.30
2022-08-17T09:37:28.406Z,27.40
2022-08-17T09:40:12.471Z,27.50
2022-08-17T09:42:48.752Z,27.61
2022-08-17T09:45:31.985Z,27.72
2022-08-17T09:48:08.384Z,27.74
2022-08-17T09:50:55.489Z,27.82
2022-08-17T09:53:32.157Z,27.96
2022-08-17T09:56:29.440Z,28.14
2022-08-17T09:59:27.472Z,28.22
2022-08-17T10:02:28.317Z,28.31
2022-08-17T10:05:07.304Z,28.40
2022-08-17T10:07:42.759Z,28.46
2022-08-17T10:10:16.897Z,28.54
2022-08-17T10:12:53.400Z,28.64
2022-08-17T10:15:38.412Z,28.78
2022-08-17T10:18:34.368Z,28.92
2022-08-17T10:21:26.441Z,29.01
2022-08-17T10:24:35.243Z,29.10
2022-08-17T10:27:32.462Z,29.16
2022-08-17T10:30:05.498Z,29.20
2022-08-17T10:32:39.765Z,29.19
2022-08-17T10:35:25.978Z,29.22
2022-08-17T10:38:26.640Z,29.36
2022-08-17T10:41:01.057Z,29.46
2022-08-17T10:43:44.682Z,29.47
2022-08-17T10:46:52.395Z,29.50
2022-08-17T10:49:30.488Z,29.56
2022-08-17T10:52:00.559Z,29.60
2022-08-17T10:54:40.417Z,29.60
2022-08-17T10:57:38.733Z,29.56
2022-08-17T11:00:16.466Z,29.52
2022-08-17T11:02:51.324Z,29.56
2022-08-17T11:05:48.798Z,29.60
2022-08-17T11:09:09.481Z,29.66
2022-08-17T11:11:54.834Z,29.61
2022-08-17T11:14:48.358Z,29.71
2022-08-17T11:17:35.420Z,29.90
2022-08-17T11:20:25.141Z,30.07
2022-08-17T11:23:20.848Z,30.17
2022-08-17T11:25:53.313Z,30.30
2022-08-17T11:28:26.285Z,30.39
2022-08-17T11:30:58.163Z,30.42
2022-08-17T11:33:53.505Z,30.39
2022-08-17T11:36:51.878Z,30.39
2022-08-17T11:39:46.013Z,30.43
2022-08-17T11:42:31.240Z,30.53
2022-08-17T11:45:09.541Z,30.65
2022-08-17T11:48:26.628Z,30.77
2022-08-17T11:51:16.451Z,30.88
2022-08-17T11:54:32.224Z,30.91
2022-08-17T11:56:58.947Z,30.92
2022-08-17T12:00:00.981Z,31.00
2022-08-17T12:02:47.416Z,31.11
2022-08-17T12:05:33.404Z,31.18
2022-08-17T12:08:11.978Z,31.23
2022-08-17T12:10:55.354Z,31.29
2022-08-17T12:13:27.339Z,31.36
2022-08-17T12:16:03.957Z,31.45
2022-08-17T12:18:41.742Z,31.47
2022-08-17T12:21:20.635Z,31.49
2022-08-17T12:23:57.177Z,31.44
2022-08-17T12:26:30.376Z,31.48
2022-08-17T12:29:03.261Z,31.53
2022-08-17T12:31:37.820Z,31.59
2022-08-17T12:34:17.088Z,31.66
2022-08-17T12:36:46.423Z,31.69
2022-08-17T12:39:21.304Z,31.69
2022-08-17T12:41:52.705Z,31.66
2022-08-17T12:44:23.397Z,31.61
2022-08-17T12:46:55.997Z,31.58
2022-08-17T12:49:30.697Z,31.54
2022-08-17T12:52:07.505Z,31.51
2022-08-17T12:54:46.711Z,31.46
2022-08-17T12:57:21.253Z,31.49
2022-08-17T12:59:53.291Z,31.56
2022-08-17T13:02:33.761Z,31.61
2022-08-17T13:05:03.720Z,31.66
2022-08-17T13:07:36.669Z,31.70
2022-08-17T13:10:05.907Z,31.76
2022-08-17T13:12:36.745Z,31.79
2022-08-17T13:15:06.081Z,31.82
2022-08-17T13:17:37.357Z,31.86
2022-08-17T13:20:16.029Z,31.89
2022-08-17T13:22:45.122Z,31.97
2022-08-17T13:25:17.772Z,32.06
2022-08-17T13:27:49.025Z,32.16
2022-08-17T13:30:22.473Z,32.31
2022-08-17T13:32:53.861Z,32.45
2022-08-17T13:35:47.111Z,32.53
2022-08-17T13:38:40.536Z,32.59
2022-08-17T13:41:08.976Z,32.64
2022-08-17T13:43:46.369Z,32.62
2022-08-17T13:46:21.083Z,32.60
2022-08-17T13:49:00.420Z,32.55
2022-08-17T13:51:35.669Z,32.41
2022-08-17T13:54:20.370Z,32.35
2022-08-17T13:57:08.292Z,32.34
2022-08-17T13:59:54.217Z,32.37
2022-08-17T14:02:28.330Z,32.45
2022-08-17T14:05:00.532Z,32.53
2022-08-17T14:07:36.438Z,32.62
2022-08-17T14:10:10.964Z,32.71
2022-08-17T14:12:42.320Z,32.73
2022-08-17T14:15:13.133Z,32.79
2022-08-17T14:17:41.987Z,32.82
2022-08-17T14:20:14.114Z,32.86
2022-08-17T14:22:46.301Z,32.85
2022-08-17T14:25:18.745Z,32.83
2022-08-17T14:27:53.598Z,32.82
2022-08-17T14:30:24.921Z,32.75
2022-08-17T14:32:58.000Z,32.72
2022-08-17T14:35:28.111Z,32.72
2022-08-17T14:37:58.497Z,32.65
2022-08-17T14:40:28.108Z,32.55
2022-08-17T14:42:58.161Z,32.51
2022-08-17T14:45:29.850Z,32.43
2022-08-17T14:48:01.862Z,32.35
2022-08-17T14:50:30.630Z,32.28
2022-08-17T14:53:02.489Z,32.24
2022-08-17T14:55:31.081Z,32.19
2022-08-17T14:57:59.770Z,32.24
2022-08-17T15:00:28.583Z,32.33
2022-08-17T15:02:59.225Z,32.43
2022-08-17T15:05:31.628Z,32.52
2022-08-17T15:08:03.009Z,32.63
2022-08-17T15:10:31.768Z,32.69
2022-08-17T15:13:00.495Z,32.75
2022-08-17T15:15:29.919Z,32.82
2022-08-17T15:18:00.074Z,32.86
2022-08-17T15:20:30.971Z,32.91
2022-08-17T15:23:01.219Z,32.97
2022-08-17T15:25:32.013Z,33.00
2022-08-17T15:28:01.821Z,32.99
2022-08-17T15:30:31.202Z,32.95
2022-08-17T15:33:00.834Z,32.95
2022-08-17T15:35:32.211Z,32.91
2022-08-17T15:38:11.106Z,32.91
2022-08-17T15:40:43.288Z,32.87
2022-08-17T15:43:13.620Z,32.80
2022-08-17T15:45:42.794Z,32.70
2022-08-17T15:48:14.331Z,32.70
2022-08-17T15:50:43.221Z,32.64
2022-08-17T15:53:14.333Z,32.55
2022-08-17T15:55:43.965Z,32.50
2022-08-17T15:58:12.366Z,32.47
2022-08-17T16:00:52.966Z,32.44
2022-08-17T16:04:01.108Z,32.41
2022-08-17T16:06:19.679Z,32.37
2022-08-17T16:08:49.536Z,32.31
2022-08-17T16:11:18.954Z,32.24
2022-08-17T16:13:54.630Z,32.16
2022-08-17T16:16:24.346Z,32.08
2022-08-17T16:18:56.306Z,32.03
2022-08-17T16:21:31.114Z,31.95
2022-08-17T16:24:13.286Z,31.86
2022-08-17T16:26:42.361Z,31.78
2022-08-17T16:29:11.071Z,31.72
2022-08-17T16:31:41.757Z,31.68
2022-08-17T16:34:17.371Z,31.66
2022-08-17T16:36:55.127Z,31.62
2022-08-17T16:39:29.002Z,31.57
2022-08-17T16:41:58.371Z,31.53
2022-08-17T16:44:31.661Z,31.49
2022-08-17T16:47:01.003Z,31.44
2022-08-17T16:49:35.952Z,31.38
2022-08-17T16:52:09.750Z,31.33
2022-08-17T16:54:43.988Z,31.30
2022-08-17T16:57:14.532Z,31.31
2022-08-17T16:59:48.015Z,31.33
2022-08-17T17:02:18.080Z,31.31
2022-08-17T17:04:52.952Z,31.25
2022-08-17T17:07:38.856Z,31.20
2022-08-17T17:10:11.960Z,31.14
2022-08-17T17:13:01.413Z,31.09
2022-08-17T17:15:51.662Z,31.00
2022-08-17T17:18:24.220Z,30.92
2022-08-17T17:20:56.834Z,30.84
2022-08-17T17:23:38.964Z,30.76
2022-08-17T17:26:22.961Z,30.69
2022-08-17T17:29:04.122Z,30.62
2022-08-17T17:31:40.556Z,30.56
2022-08-17T17:34:14.573Z,30.50
2022-08-17T17:36:48.223Z,30.40
2022-08-17T17:39:20.131Z,30.28
2022-08-17T17:41:53.939Z,30.15
2022-08-17T17:44:27.454Z,30.02
2022-08-17T17:47:00.230Z,29.99
2022-08-17T17:49:31.956Z,29.97
2022-08-17T17:52:14.410Z,29.97
2022-08-17T17:54:57.580Z,29.91
2022-08-17T17:57:44.189Z,29.85
2022-08-17T18:00:16.383Z,29.78
2022-08-17T18:02:56.653Z,29.69
2022-08-17T18:05:49.598Z,29.55
2022-08-17T18:08:34.863Z,29.45
2022-08-17T18:11:24.275Z,29.27
2022-08-17T18:14:06.330Z,29.25
2022-08-17T18:16:36.263Z,29.28
2022-08-17T18:19:06.127Z,29.30
2022-08-17T18:21:38.925Z,29.29
2022-08-17T18:24:10.448Z,29.19
2022-08-17T18:26:47.939Z,29.06
2022-08-17T18:29:35.963Z,29.05
2022-08-17T18:32:28.301Z,29.06
2022-08-17T18:34:59.714Z,29.03
2022-08-17T18:37:39.929Z,29.01
2022-08-17T18:40:33.629Z,28.95
2022-08-17T18:43:12.553Z,28.91
2022-08-17T18:45:47.141Z,28.90
2022-08-17T18:48:24.499Z,28.86
2022-08-17T18:50:58.290Z,28.85
2022-08-17T18:53:36.994Z,28.80
2022-08-17T18:56:24.213Z,28.63
2022-08-17T18:58:59.735Z,28.43
2022-08-17T19:01:47.159Z,28.38
2022-08-17T19:04:34.484Z,28.29
2022-08-17T19:07:10.507Z,28.25
2022-08-17T19:09:44.402Z,28.28
2022-08-17T19:12:27.372Z,28.24
2022-08-17T19:14:58.035Z,28.07
2022-08-17T19:17:37.215Z,27.94
2022-08-17T19:20:13.098Z,27.81
2022-08-17T19:22:55.134Z,27.71
2022-08-17T19:25:28.070Z,27.60
2022-08-17T19:28:21.715Z,27.58
2022-08-17T19:30:56.334Z,27.59
2022-08-17T19:33:27.195Z,27.57
2022-08-17T19:36:06.370Z,27.55
2022-08-17T19:38:48.591Z,27.47
2022-08-17T19:41:23.731Z,27.39
2022-08-17T19:44:02.391Z,27.32
2022-08-17T19:46:48.715Z,27.39
2022-08-17T19:49:41.630Z,27.44
2022-08-17T19:52:30.844Z,27.43
2022-08-17T19:55:05.730Z,27.43
2022-08-17T19:57:45.119Z,27.46
2022-08-17T20:00:17.257Z,27.47
2022-08-17T20:02:53.671Z,27.49
2022-08-17T20:05:28.196Z,27.50
2022-08-17T20:08:02.753Z,27.51
2022-08-17T20:10:39.660Z,27.45
2022-08-17T20:13:12.222Z,27.41
2022-08-17T20:15:43.849Z,27.37
2022-08-17T20:18:21.012Z,27.32
2022-08-17T20:20:59.361Z,27.25
2022-08-17T20:23:50.566Z,27.20
2022-08-17T20:26:26.371Z,27.19
2022-08-17T20:29:31.903Z,27.24
2022-08-17T20:32:20.007Z,27.20
2022-08-17T20:34:49.240Z,27.05
2022-08-17T20:37:31.862Z,26.80
2022-08-17T20:40:20.565Z,26.52
2022-08-17T20:42:49.131Z,26.44
2022-08-17T20:46:02.215Z,26.62
2022-08-17T20:48:38.312Z,26.81
2022-08-17T20:51:20.142Z,26.93
2022-08-17T20:54:06.632Z,26.98
2022-08-17T20:57:00.563Z,26.98
2022-08-17T21:00:05.209Z,26.95
2022-08-17T21:02:34.081Z,26.89
2022-08-17T21:05:30.183Z,26.87
2022-08-17T21:08:02.059Z,26.79
2022-08-17T21:10:38.840Z,26.64
2022-08-17T21:13:55.164Z,26.58
2022-08-17T21:16:34.371Z,26.61
2022-08-17T21:19:22.986Z,26.67
2022-08-17T21:22:05.203Z,26.73
2022-08-17T21:24:51.814Z,26.74
2022-08-17T21:27:35.749Z,26.72
2022-08-17T21:30:25.355Z,26.63
2022-08-17T21:33:21.178Z,26.51
2022-08-17T21:35:52.206Z,26.41
2022-08-17T21:38:24.371Z,26.38
2022-08-17T21:40:54.397Z,26.35
2022-08-17T21:43:30.295Z,26.30
2022-08-17T21:46:03.456Z,26.23
2022-08-17T21:48:41.319Z,26.18
2022-08-17T21:51:12.397Z,26.08
2022-08-17T21:53:48.572Z,25.86
2022-08-17T21:56:27.041Z,25.68
2022-08-17T21:59:00.388Z,25.46
2022-08-17T22:01:34.401Z,25.39
2022-08-17T22:04:08.650Z,25.40
2022-08-17T22:06:40.214Z,25.49
2022-08-17T22:09:17.703Z,25.58
2022-08-17T22:11:55.491Z,25.76
2022-08-17T22:14:52.247Z,25.86
2022-08-17T22:17:19.159Z,25.76
2022-08-17T22:19:51.454Z,25.61
2022-08-17T22:22:30.340Z,25.60
2022-08-17T22:25:03.071Z,25.50
2022-08-17T22:27:50.661Z,25.25
2022-08-17T22:30:34.093Z,25.07
2022-08-17T22:33:36.267Z,25.09
2022-08-17T22:36:29.728Z,25.12
2022-08-17T22:39:00.092Z,25.26
2022-08-17T22:41:42.042Z,25.33
2022-08-17T22:44:27.760Z,25.40
2022-08-17T22:47:22.374Z,25.42
2022-08-17T22:49:57.482Z,25.31
2022-08-17T22:52:34.819Z,25.26
2022-08-17T22:55:38.009Z,25.08
2022-08-17T22:58:29.643Z,24.92
2022-08-17T23:00:58.121Z,24.65
2022-08-17T23:03:28.643Z,24.50
2022-08-17T23:06:06.984Z,24.48
2022-08-17T23:08:43.496Z,24.49
2022-08-17T23:11:12.064Z,24.51
2022-08-17T23:13:40.773Z,24.52
2022-08-17T23:16:09.372Z,24.50
2022-08-17T23:18:39.125Z,24.49
2022-08-17T23:21:07.781Z,24.46
2022-08-17T23:23:37.099Z,24.45
2022-08-17T23:26:11.290Z,24.40
2022-08-17T23:28:43.722Z,24.29
2022-08-17T23:31:14.111Z,24.21
2022-08-17T23:33:44.411Z,24.10
2022-08-17T23:36:15.743Z,23.99
2022-08-17T23:38:48.969Z,23.87
2022-08-17T23:41:21.644Z,23.76
2022-08-17T23:43:53.775Z,23.66
2022-08-17T23:46:25.076Z,23.56
2022-08-17T23:48:54.948Z,23.54
2022-08-17T23:51:26.596Z,23.51
2022-08-17T23:53:58.797Z,23.43
2022-08-17T23:56:27.388Z,23.34
2022-08-17T23:58:58.097Z,23.28
